Time;durP1;ratioP1;P1;durP2;ratioP2;P2;SDS_P1;SDS_P2;PMS_P1;PMS_P2;Temp;Humidity;BMP_temperature;BMP_pressure;BME280_temperature;BME280_humidity;BME280_pressure;Samples;Min_cycle;Max_cycle;Signal;HPM_P1;HPM_P2
2022/11/02 00:02:13;;;;;;;13.63;2.80;;;;;;;;;;4977248;28;93215;-80
2022/11/02 00:04:42;;;;;;;18.70;2.50;;;;;;;;;;4978235;28;92456;-80
2022/11/02 00:07:09;;;;;;;9.75;2.25;;;;;;;;;;4975948;28;94688;-80
2022/11/02 00:09:35;;;;;;;12.63;2.60;;;;;;;;;;4977033;28;93078;-80
2022/11/02 00:12:01;;;;;;;13.02;2.90;;;;;;;;;;4977717;28;93150;-81
2022/11/02 00:14:29;;;;;;;6.28;2.38;;;;;;;;;;4978236;28;92954;-81
2022/11/02 00:16:55;;;;;;;7.30;2.65;;;;;;;;;;4976709;28;93435;-81
2022/11/02 00:19:21;;;;;;;9.02;2.55;;;;;;;;;;4978258;28;92451;-81
2022/11/02 00:21:48;;;;;;;10.55;2.65;;;;;;;;;;4980868;28;93053;-81
2022/11/02 00:24:14;;;;;;;12.18;2.25;;;;;;;;;;4977839;28;91728;-81
2022/11/02 00:26:40;;;;;;;13.57;2.92;;;;;;;;;;4977553;28;93210;-80
2022/11/02 00:29:07;;;;;;;7.82;2.17;;;;;;;;;;4977546;28;93191;-81
2022/11/02 00:31:33;;;;;;;14.32;3.05;;;;;;;;;;4974846;28;94859;-81
2022/11/02 00:34:00;;;;;;;8.27;2.42;;;;;;;;;;4976422;28;98154;-81
2022/11/02 00:36:27;;;;;;;10.95;2.38;;;;;;;;;;4977775;28;93183;-81
2022/11/02 00:38:54;;;;;;;15.07;2.85;;;;;;;;;;4976931;28;93652;-81
2022/11/02 00:41:20;;;;;;;13.90;2.50;;;;;;;;;;4979225;28;93171;-80
2022/11/02 00:43:47;;;;;;;16.83;3.00;;;;;;;;;;4978435;28;92377;-80
2022/11/02 00:46:13;;;;;;;13.82;2.88;;;;;;;;;;4975742;28;93446;-80
2022/11/02 00:48:40;;;;;;;12.32;2.47;;;;;;;;;;4978634;28;93444;-80
2022/11/02 00:51:08;;;;;;;13.82;2.35;;;;;;;;;;4975484;28;92595;-80
2022/11/02 00:53:35;;;;;;;13.13;2.70;;;;;;;;;;4976882;28;95757;-80
2022/11/02 00:56:02;;;;;;;10.65;2.50;;;;;;;;;;4974127;28;97612;-80
2022/11/02 00:58:28;;;;;;;14.88;2.92;;;;;;;;;;4974878;28;92835;-80
2022/11/02 01:00:55;;;;;;;10.35;2.20;;;;;;;;;;4976235;28;95529;-80
2022/11/02 01:03:22;;;;;;;10.75;2.75;;;;;;;;;;4979377;28;96014;-80
2022/11/02 01:05:48;;;;;;;10.65;2.13;;;;;;;;;;4976192;28;92896;-80
2022/11/02 01:08:17;;;;;;;7.72;2.05;;;;;;;;;;4977536;28;93112;-82
2022/11/02 01:10:43;;;;;;;14.13;5.05;;;;;;;;;;4977364;28;92412;-81
2022/11/02 01:13:15;;;;;;;18.48;2.80;;;;;;;;;;4977276;28;93904;-82
2022/11/02 01:15:42;;;;;;;16.00;3.08;;;;;;;;;;4977464;28;94081;-84
2022/11/02 01:18:08;;;;;;;9.30;2.10;;;;;;;;;;4976772;28;92528;-82
2022/11/02 01:20:34;;;;;;;8.52;2.42;;;;;;;;;;4975460;28;94861;-82
2022/11/02 01:23:01;;;;;;;6.57;2.05;;;;;;;;;;4977607;28;92995;-82
2022/11/02 01:25:28;;;;;;;8.20;2.10;;;;;;;;;;4980211;28;92425;-82
2022/11/02 01:27:54;;;;;;;6.47;1.90;;;;;;;;;;4975599;28;93355;-81
2022/11/02 01:30:21;;;;;;;4.32;1.20;;;;;;;;;;4977328;28;92479;-81
2022/11/02 01:32:47;;;;;;;2.70;1.27;;;;;;;;;;4975571;28;94545;-81
2022/11/02 01:35:15;;;;;;;8.88;1.20;;;;;;;;;;4976606;28;93042;-81
2022/11/02 01:37:41;;;;;;;3.78;1.27;;;;;;;;;;4977538;28;92436;-81
2022/11/02 01:40:08;;;;;;;8.80;1.17;;;;;;;;;;4977162;28;92400;-81
2022/11/02 01:42:34;;;;;;;2.60;1.02;;;;;;;;;;4977429;28;94195;-81
2022/11/02 01:45:03;;;;;;;3.40;0.98;;;;;;;;;;4974199;28;94917;-82
2022/11/02 01:47:31;;;;;;;8.15;1.50;;;;;;;;;;4977931;28;95409;-82
2022/11/02 01:50:03;;;;;;;2.88;1.13;;;;;;;;;;4977257;28;92705;-83
2022/11/02 01:52:34;;;;;;;5.68;1.50;;;;;;;;;;4977732;28;92688;-82
2022/11/02 01:55:05;;;;;;;2.33;1.00;;;;;;;;;;4974678;28;94179;-82
2022/11/02 01:57:34;;;;;;;6.43;1.05;;;;;;;;;;4975155;28;92391;-82
2022/11/02 02:00:06;;;;;;;8.27;1.58;;;;;;;;;;4974512;28;93882;-83
2022/11/02 02:03:00;;;;;;;7.10;1.50;;;;;;;;;;4975443;28;92117;-82
2022/11/02 02:05:28;;;;;;;8.27;1.23;;;;;;;;;;4975938;28;92515;-82
2022/11/02 02:07:55;;;;;;;4.40;1.58;;;;;;;;;;4975445;28;93143;-82
2022/11/02 02:10:21;;;;;;;9.88;1.63;;;;;;;;;;4978159;28;95458;-82
2022/11/02 02:12:48;;;;;;;3.15;1.15;;;;;;;;;;4977245;28;95235;-83
2022/11/02 02:15:20;;;;;;;4.45;1.15;;;;;;;;;;4975274;28;95510;-81
2022/11/02 02:18:04;;;;;;;8.07;1.83;;;;;;;;;;4975459;28;92363;-83
2022/11/02 02:20:35;;;;;;;7.50;1.60;;;;;;;;;;4977394;28;92858;-84
2022/11/02 02:23:01;;;;;;;5.72;1.40;;;;;;;;;;4975911;28;94146;-83
2022/11/02 02:25:37;;;;;;;4.55;1.45;;;;;;;;;;4976556;28;92468;-83
2022/11/02 02:28:03;;;;;;;4.97;1.77;;;;;;;;;;4977076;28;92307;-83
2022/11/02 02:30:42;;;;;;;7.57;1.73;;;;;;;;;;4975923;28;92760;-84
2022/11/02 02:33:24;;;;;;;4.00;1.50;;;;;;;;;;4978821;28;92313;-83
2022/11/02 02:35:56;;;;;;;7.22;1.73;;;;;;;;;;4972926;28;98534;-82
2022/11/02 02:38:34;;;;;;;4.25;1.40;;;;;;;;;;4974893;28;92487;-82
2022/11/02 02:41:10;;;;;;;6.68;1.58;;;;;;;;;;4976073;28;93206;-82
2022/11/02 02:43:54;;;;;;;5.88;1.90;;;;;;;;;;4973527;28;93772;-82
2022/11/02 02:46:21;;;;;;;;;;;;;;;;;;4976721;28;92479;-81
2022/11/02 02:48:47;;;;;;;10.32;1.88;;;;;;;;;;4977619;28;121881;-81
2022/11/02 02:51:17;;;;;;;4.10;1.45;;;;;;;;;;4975425;28;93697;-83
2022/11/02 02:53:46;;;;;;;9.20;2.10;;;;;;;;;;4978528;28;91737;-83
2022/11/02 02:56:16;;;;;;;4.80;1.77;;;;;;;;;;4974819;28;95068;-82
2022/11/02 02:58:54;;;;;;;4.90;1.95;;;;;;;;;;4974730;28;92525;-81
2022/11/02 03:01:22;;;;;;;6.28;1.73;;;;;;;;;;4974953;28;94797;-81
2022/11/02 03:03:48;;;;;;;9.98;2.20;;;;;;;;;;4975242;28;95667;-83
2022/11/02 03:06:21;;;;;;;7.10;2.03;;;;;;;;;;4975826;28;92447;-82
2022/11/02 03:08:57;;;;;;;7.47;2.05;;;;;;;;;;4974968;28;95216;-83
2022/11/02 03:11:24;;;;;;;7.55;2.05;;;;;;;;;;4979843;28;93095;-82
2022/11/02 03:14:06;;;;;;;7.25;2.28;;;;;;;;;;4978104;28;93096;-83
2022/11/02 03:16:40;;;;;;;9.65;1.92;;;;;;;;;;4980965;28;95766;-83
2022/11/02 03:19:17;;;;;;;7.35;2.40;;;;;;;;;;4977657;28;91879;-82
2022/11/02 03:21:44;;;;;;;17.67;2.10;;;;;;;;;;4979818;28;92502;-82
2022/11/02 03:24:10;;;;;;;6.30;2.28;;;;;;;;;;4978536;28;93067;-82
2022/11/02 03:26:45;;;;;;;13.10;2.55;;;;;;;;;;4977321;28;95997;-82
2022/11/02 03:29:24;;;;;;;12.05;2.03;;;;;;;;;;4978714;28;96191;-82
2022/11/02 03:31:54;;;;;;;15.00;3.08;;;;;;;;;;4977319;28;94225;-81
2022/11/02 03:34:41;;;;;;;10.30;2.15;;;;;;;;;;4976959;28;92670;-81
2022/11/02 03:37:12;;;;;;;10.15;2.40;;;;;;;;;;4976312;28;94718;-82
2022/11/02 03:39:42;;;;;;;9.63;2.55;;;;;;;;;;4981427;28;93168;-81
2022/11/02 03:42:13;;;;;;;7.68;2.50;;;;;;;;;;4978336;28;95473;-83
2022/11/02 03:44:40;;;;;;;16.23;3.03;;;;;;;;;;4978328;28;93496;-81
2022/11/02 03:47:10;;;;;;;7.10;2.10;;;;;;;;;;4976881;28;92631;-82
2022/11/02 03:49:38;;;;;;;9.48;2.85;;;;;;;;;;4977831;28;93760;-80
2022/11/02 03:52:08;;;;;;;11.95;2.63;;;;;;;;;;4978023;28;95402;-81
2022/11/02 03:54:58;;;;;;;18.27;2.50;;;;;;;;;;4977916;28;93004;-82
2022/11/02 03:57:28;;;;;;;15.75;2.88;;;;;;;;;;4978571;28;95518;-82
2022/11/02 04:00:13;;;;;;;14.60;3.95;;;;;;;;;;4978703;28;93045;-81
2022/11/02 04:02:53;;;;;;;17.63;2.83;;;;;;;;;;4980034;28;92793;-81
2022/11/02 04:05:31;;;;;;;13.20;2.47;;;;;;;;;;4977529;28;95729;-81
2022/11/02 04:08:23;;;;;;;10.68;2.53;;;;;;;;;;4976760;28;92444;-82
2022/11/02 04:16:33;;;;;;;9.50;2.45;;;;;;;;;;4975807;28;92456;-82
2022/11/02 04:27:23;;;;;;;10.80;3.28;;;;;;;;;;4979871;28;93089;-80
2022/11/02 04:29:52;;;;;;;15.48;3.40;;;;;;;;;;4975817;28;92689;-80
2022/11/02 04:33:31;;;;;;;19.35;3.47;;;;;;;;;;4977030;28;95104;-81
2022/11/02 04:35:11;;;;;;;18.48;3.17;;;;;;;;;;4976624;28;93217;-81
2022/11/02 04:40:27;;;;;;;12.20;2.30;;;;;;;;;;4976977;28;94388;-80
2022/11/02 04:42:54;;;;;;;17.98;2.83;;;;;;;;;;4976602;28;94106;-79
2022/11/02 04:45:21;;;;;;;13.38;2.75;;;;;;;;;;4975569;28;94830;-79
2022/11/02 04:47:50;;;;;;;13.77;2.75;;;;;;;;;;4980317;28;95636;-80
2022/11/02 04:50:17;;;;;;;11.13;3.13;;;;;;;;;;4976130;28;92410;-80
2022/11/02 04:52:43;;;;;;;11.57;2.97;;;;;;;;;;4976317;28;95069;-80
2022/11/02 04:55:11;;;;;;;19.13;3.40;;;;;;;;;;4976047;28;94108;-80
2022/11/02 04:57:42;;;;;;;11.55;3.15;;;;;;;;;;4976020;28;92438;-80
2022/11/02 05:00:09;;;;;;;16.15;2.53;;;;;;;;;;4976317;28;95451;-80
2022/11/02 05:02:36;;;;;;;17.52;3.22;;;;;;;;;;4976860;28;94603;-80
2022/11/02 05:05:04;;;;;;;23.85;2.95;;;;;;;;;;4977195;28;92429;-80
2022/11/02 05:07:31;;;;;;;23.90;3.72;;;;;;;;;;4977797;28;94369;-80
2022/11/02 05:09:57;;;;;;;17.73;3.00;;;;;;;;;;4977922;28;95426;-79
2022/11/02 05:12:25;;;;;;;15.15;3.08;;;;;;;;;;4975076;28;96841;-80
2022/11/02 05:14:55;;;;;;;16.52;3.08;;;;;;;;;;4977162;28;93777;-79
2022/11/02 05:17:21;;;;;;;15.55;2.30;;;;;;;;;;4976919;28;92462;-80
2022/11/02 05:19:47;;;;;;;19.10;3.60;;;;;;;;;;4975532;28;95570;-79
2022/11/02 05:22:14;;;;;;;12.05;3.25;;;;;;;;;;4976323;28;96625;-80
2022/11/02 05:24:40;;;;;;;18.73;3.60;;;;;;;;;;4975945;28;92421;-80
2022/11/02 05:27:08;;;;;;;12.32;3.17;;;;;;;;;;4975923;28;92947;-80
2022/11/02 05:29:36;;;;;;;25.30;3.78;;;;;;;;;;4975279;28;95178;-79
2022/11/02 05:32:04;;;;;;;15.50;3.75;;;;;;;;;;4978419;28;92501;-80
2022/11/02 05:34:31;;;;;;;17.65;3.28;;;;;;;;;;4973510;28;96879;-80
2022/11/02 05:36:58;;;;;;;16.17;3.63;;;;;;;;;;4975544;28;92435;-79
2022/11/02 05:39:24;;;;;;;19.70;3.40;;;;;;;;;;4976485;28;93101;-79
2022/11/02 05:41:53;;;;;;;22.88;3.25;;;;;;;;;;4975691;28;95801;-80
2022/11/02 05:44:19;;;;;;;16.50;3.05;;;;;;;;;;4975630;28;92429;-80
2022/11/02 05:46:46;;;;;;;16.38;3.58;;;;;;;;;;4975050;28;94069;-80
2022/11/02 05:49:12;;;;;;;15.55;2.72;;;;;;;;;;4975063;28;94264;-82
2022/11/02 05:51:39;;;;;;;19.40;3.58;;;;;;;;;;4976772;28;92502;-80
2022/11/02 05:54:06;;;;;;;19.58;3.55;;;;;;;;;;4978353;28;92400;-80
2022/11/02 05:56:34;;;;;;;11.52;2.97;;;;;;;;;;4976274;28;92471;-81
2022/11/02 05:59:00;;;;;;;17.23;3.35;;;;;;;;;;4974912;28;94735;-80
2022/11/02 06:01:26;;;;;;;14.38;2.70;;;;;;;;;;4975912;28;93225;-80
2022/11/02 06:03:53;;;;;;;17.13;2.70;;;;;;;;;;4977162;28;92276;-80
2022/11/02 06:06:20;;;;;;;13.07;3.20;;;;;;;;;;4977232;28;92889;-81
2022/11/02 06:08:47;;;;;;;24.90;3.33;;;;;;;;;;4975957;28;93215;-80
2022/11/02 06:11:15;;;;;;;18.98;3.55;;;;;;;;;;4976452;28;92516;-80
2022/11/02 06:13:43;;;;;;;15.98;2.95;;;;;;;;;;4976638;28;94405;-81
2022/11/02 06:16:10;;;;;;;19.30;3.10;;;;;;;;;;4978769;28;93671;-80
2022/11/02 06:18:37;;;;;;;14.60;3.15;;;;;;;;;;4976312;28;92800;-80
2022/11/02 06:21:04;;;;;;;17.52;2.80;;;;;;;;;;4975787;28;94233;-80
2022/11/02 06:23:32;;;;;;;18.55;4.22;;;;;;;;;;4974137;28;95308;-79
2022/11/02 06:26:00;;;;;;;14.20;2.45;;;;;;;;;;4976467;28;96347;-80
2022/11/02 06:28:26;;;;;;;17.73;2.90;;;;;;;;;;4975961;28;94460;-79
2022/11/02 06:30:53;;;;;;;18.52;3.72;;;;;;;;;;4974418;28;92532;-79
2022/11/02 06:33:20;;;;;;;13.15;3.10;;;;;;;;;;4976688;28;94202;-79
2022/11/02 06:35:47;;;;;;;20.85;3.35;;;;;;;;;;4975505;28;93362;-79
2022/11/02 06:38:14;;;;;;;11.57;2.72;;;;;;;;;;4980178;28;92891;-79
2022/11/02 06:40:41;;;;;;;15.73;2.90;;;;;;;;;;4977007;28;93642;-79
2022/11/02 06:43:08;;;;;;;12.90;2.90;;;;;;;;;;4975837;28;92886;-80
2022/11/02 06:45:43;;;;;;;18.08;3.15;;;;;;;;;;4978446;28;93987;-80
2022/11/02 06:48:09;;;;;;;12.05;2.75;;;;;;;;;;4977496;28;96713;-80
2022/11/02 06:50:35;;;;;;;13.93;2.97;;;;;;;;;;4978508;28;92481;-80
2022/11/02 06:53:02;;;;;;;11.65;3.00;;;;;;;;;;4979221;28;94151;-79
2022/11/02 06:55:29;;;;;;;22.58;3.63;;;;;;;;;;4980122;28;94089;-79
2022/11/02 06:57:56;;;;;;;12.30;2.95;;;;;;;;;;4981553;28;92437;-79
2022/11/02 07:00:25;;;;;;;15.05;2.47;;;;;;;;;;4980219;28;94068;-80
2022/11/02 07:02:59;;;;;;;19.20;2.97;;;;;;;;;;4979575;28;92404;-80
2022/11/02 07:05:25;;;;;;;8.95;2.33;;;;;;;;;;4979783;28;94342;-79
2022/11/02 07:07:52;;;;;;;13.55;2.20;;;;;;;;;;4979609;28;94041;-79
2022/11/02 07:10:18;;;;;;;16.70;2.38;;;;;;;;;;4979518;28;92455;-79
2022/11/02 07:12:44;;;;;;;9.82;2.45;;;;;;;;;;4977058;28;94808;-78
2022/11/02 07:15:10;;;;;;;10.88;1.90;;;;;;;;;;4978841;28;93115;-78
2022/11/02 07:17:40;;;;;;;18.05;2.85;;;;;;;;;;4979270;28;92234;-77
2022/11/02 07:20:09;;;;;;;18.90;3.92;;;;;;;;;;4981531;28;94022;-79
2022/11/02 07:22:38;;;;;;;13.70;2.65;;;;;;;;;;4979640;28;92320;-77
2022/11/02 07:25:05;;;;;;;14.15;2.25;;;;;;;;;;4978162;28;93923;-79
2022/11/02 07:27:36;;;;;;;10.50;2.38;;;;;;;;;;4978958;28;94536;-80
2022/11/02 07:30:03;;;;;;;11.85;1.80;;;;;;;;;;4978815;28;91669;-78
2022/11/02 07:32:29;;;;;;;5.72;2.15;;;;;;;;;;4978438;28;93182;-77
2022/11/02 07:34:56;;;;;;;7.63;2.28;;;;;;;;;;4977642;28;93722;-77
2022/11/02 07:37:22;;;;;;;10.63;2.08;;;;;;;;;;4976557;28;94864;-78
2022/11/02 07:39:48;;;;;;;12.98;2.08;;;;;;;;;;4976787;28;96080;-78
2022/11/02 07:42:15;;;;;;;14.48;2.45;;;;;;;;;;4981468;28;94299;-78
2022/11/02 07:44:47;;;;;;;5.60;1.77;;;;;;;;;;4977297;28;95190;-78
2022/11/02 07:47:13;;;;;;;8.38;2.70;;;;;;;;;;4978166;28;94159;-78
2022/11/02 07:49:39;;;;;;;8.68;1.95;;;;;;;;;;4978480;28;92511;-78
2022/11/02 07:52:06;;;;;;;12.80;2.28;;;;;;;;;;4977094;28;94065;-78
2022/11/02 07:54:32;;;;;;;8.02;2.20;;;;;;;;;;4978104;28;93434;-78
2022/11/02 07:57:00;;;;;;;13.68;2.15;;;;;;;;;;4977673;28;92442;-78
2022/11/02 07:59:28;;;;;;;12.55;2.65;;;;;;;;;;4978333;28;93022;-78
2022/11/02 08:01:54;;;;;;;9.60;2.20;;;;;;;;;;4975573;28;95827;-77
2022/11/02 08:04:21;;;;;;;9.20;2.20;;;;;;;;;;4980972;28;92428;-78
2022/11/02 08:06:52;;;;;;;10.23;2.03;;;;;;;;;;4977860;28;93327;-77
2022/11/02 08:09:19;;;;;;;8.75;1.88;;;;;;;;;;4978041;28;92667;-83
2022/11/02 08:11:45;;;;;;;17.63;2.78;;;;;;;;;;4978925;28;94089;-79
2022/11/02 08:14:11;;;;;;;8.32;2.10;;;;;;;;;;4977022;28;92524;-79
2022/11/02 08:16:39;;;;;;;9.07;2.55;;;;;;;;;;4976956;28;92491;-81
2022/11/02 08:19:05;;;;;;;12.93;2.63;;;;;;;;;;4978449;28;94295;-80
2022/11/02 08:21:32;;;;;;;12.95;2.25;;;;;;;;;;4977903;28;94209;-80
2022/11/02 08:23:58;;;;;;;10.80;2.55;;;;;;;;;;4979947;28;92411;-80
2022/11/02 08:26:24;;;;;;;10.88;2.13;;;;;;;;;;4979933;28;94666;-80
2022/11/02 08:28:51;;;;;;;14.02;2.40;;;;;;;;;;4977254;28;92743;-79
2022/11/02 08:31:18;;;;;;;14.52;2.83;;;;;;;;;;4977568;28;93008;-79
2022/11/02 08:33:44;;;;;;;16.15;2.05;;;;;;;;;;4977429;28;94156;-79
2022/11/02 08:36:11;;;;;;;10.40;2.00;;;;;;;;;;4976937;28;92579;-79
2022/11/02 08:38:38;;;;;;;9.48;2.45;;;;;;;;;;4978116;28;93114;-79
2022/11/02 08:41:05;;;;;;;9.82;2.05;;;;;;;;;;4977684;28;94176;-79
2022/11/02 08:43:31;;;;;;;8.35;2.10;;;;;;;;;;4978125;28;91808;-78
2022/11/02 08:45:58;;;;;;;10.00;1.98;;;;;;;;;;4977284;28;92555;-79
2022/11/02 08:48:42;;;;;;;13.05;2.40;;;;;;;;;;4980737;28;94286;-79
2022/11/02 08:51:09;;;;;;;12.75;2.17;;;;;;;;;;4975503;28;95074;-79
2022/11/02 08:53:35;;;;;;;18.60;2.63;;;;;;;;;;4977360;28;94250;-79
2022/11/02 08:56:11;;;;;;;17.05;2.33;;;;;;;;;;4977238;28;92336;-79
2022/11/02 08:58:37;;;;;;;9.82;2.25;;;;;;;;;;4977914;28;93031;-78
2022/11/02 09:01:04;;;;;;;14.18;2.60;;;;;;;;;;4977085;28;94310;-78
2022/11/02 09:03:30;;;;;;;11.02;1.95;;;;;;;;;;4976343;28;92822;-78
2022/11/02 09:05:59;;;;;;;18.27;2.72;;;;;;;;;;4976869;28;94168;-77
2022/11/02 09:08:26;;;;;;;18.95;4.35;;;;;;;;;;4980719;28;93467;-78
2022/11/02 09:11:03;;;;;;;8.95;2.85;;;;;;;;;;4976377;28;92684;-77
2022/11/02 09:13:30;;;;;;;18.55;4.13;;;;;;;;;;4976974;28;93168;-78
2022/11/02 09:16:01;;;;;;;11.23;2.28;;;;;;;;;;4975126;28;94934;-78
2022/11/02 09:18:30;;;;;;;12.93;2.30;;;;;;;;;;4974133;28;96456;-79
2022/11/02 09:21:00;;;;;;;19.83;2.50;;;;;;;;;;4976879;28;94218;-77
2022/11/02 09:23:31;;;;;;;12.60;2.50;;;;;;;;;;4977325;28;92312;-78
2022/11/02 09:25:59;;;;;;;16.70;2.30;;;;;;;;;;4975603;28;94075;-77
2022/11/02 09:28:28;;;;;;;12.63;2.53;;;;;;;;;;4975508;28;93260;-78
2022/11/02 09:30:57;;;;;;;10.27;2.70;;;;;;;;;;4979926;28;92474;-77
2022/11/02 09:33:24;;;;;;;13.95;2.50;;;;;;;;;;4977119;28;92771;-78
2022/11/02 09:35:51;;;;;;;15.18;2.20;;;;;;;;;;4977153;28;93080;-77
2022/11/02 09:38:23;;;;;;;15.60;3.15;;;;;;;;;;4977231;28;94083;-78
2022/11/02 09:40:52;;;;;;;12.60;2.90;;;;;;;;;;4974867;28;96778;-77
2022/11/02 09:43:23;;;;;;;12.32;2.28;;;;;;;;;;4976885;28;92520;-77
2022/11/02 09:45:56;;;;;;;13.23;2.40;;;;;;;;;;4976015;28;93850;-77
2022/11/02 09:48:29;;;;;;;13.43;2.45;;;;;;;;;;4976732;28;94160;-77
2022/11/02 09:51:03;;;;;;;4.45;1.88;;;;;;;;;;4976392;28;92534;-77
2022/11/02 09:53:40;;;;;;;14.40;2.45;;;;;;;;;;4978885;28;92811;-77
2022/11/02 09:56:07;;;;;;;8.02;2.20;;;;;;;;;;4976509;28;92395;-77
2022/11/02 09:58:36;;;;;;;27.60;2.40;;;;;;;;;;4977149;28;94749;-77
2022/11/02 10:01:17;;;;;;;10.25;2.70;;;;;;;;;;4974144;28;94279;-77
2022/11/02 10:03:46;;;;;;;11.38;2.45;;;;;;;;;;4975811;28;92427;-77
2022/11/02 10:06:26;;;;;;;12.95;2.60;;;;;;;;;;4974122;28;94757;-77
2022/11/02 10:09:19;;;;;;;8.73;2.63;;;;;;;;;;4975077;28;95767;-77
2022/11/02 10:11:58;;;;;;;12.27;2.45;;;;;;;;;;4953582;28;92419;-77
2022/11/02 10:14:30;;;;;;;11.93;2.25;;;;;;;;;;4976209;28;93908;-77
2022/11/02 10:17:00;;;;;;;13.10;2.27;;;;;;;;;;4978849;28;94980;-77
2022/11/02 10:19:27;;;;;;;9.48;1.88;;;;;;;;;;4976571;28;94005;-77
2022/11/02 10:21:56;;;;;;;19.38;2.30;;;;;;;;;;4977532;28;93635;-77
2022/11/02 10:24:31;;;;;;;9.13;2.28;;;;;;;;;;4980186;28;91740;-76
2022/11/02 10:27:01;;;;;;;9.18;2.33;;;;;;;;;;4979030;28;93143;-76
2022/11/02 10:29:27;;;;;;;21.83;2.97;;;;;;;;;;4978451;28;94156;-76
2022/11/02 10:31:54;;;;;;;13.15;2.47;;;;;;;;;;4977714;28;95452;-75
2022/11/02 10:34:25;;;;;;;13.18;2.97;;;;;;;;;;4988391;28;96334;-75
2022/11/02 10:37:15;;;;;;;18.08;2.80;;;;;;;;;;4997972;28;94156;-76
2022/11/02 10:39:59;;;;;;;15.43;3.72;;;;;;;;;;5002306;28;92467;-76
2022/11/02 10:42:45;;;;;;;9.80;2.97;;;;;;;;;;4997531;28;94246;-76
2022/11/02 10:45:11;;;;;;;16.23;2.15;;;;;;;;;;4999046;28;92353;-76
2022/11/02 10:47:53;;;;;;;14.85;3.13;;;;;;;;;;4999055;28;93227;-77
2022/11/02 10:50:28;;;;;;;21.05;2.92;;;;;;;;;;4999164;28;93421;-80
2022/11/02 10:52:59;;;;;;;13.77;3.03;;;;;;;;;;4999304;28;92619;-77
2022/11/02 10:55:56;;;;;;;13.40;3.35;;;;;;;;;;4998851;28;93906;-77
2022/11/02 10:58:25;;;;;;;12.20;2.30;;;;;;;;;;4997490;28;95381;-77
2022/11/02 11:01:01;;;;;;;9.35;2.38;;;;;;;;;;4998200;28;92472;-77
2022/11/02 11:03:28;;;;;;;12.25;2.80;;;;;;;;;;5001292;28;94199;-77
2022/11/02 11:05:58;;;;;;;14.77;2.55;;;;;;;;;;4999363;28;93684;-78
2022/11/02 11:08:24;;;;;;;17.95;3.15;;;;;;;;;;4998469;28;93222;-77
2022/11/02 11:10:51;;;;;;;9.15;2.13;;;;;;;;;;4997484;28;93229;-77
2022/11/02 11:13:21;;;;;;;12.75;2.80;;;;;;;;;;4999211;28;92509;-76
2022/11/02 11:16:08;;;;;;;11.68;2.67;;;;;;;;;;4998732;28;93173;-76
2022/11/02 11:18:38;;;;;;;10.07;2.60;;;;;;;;;;4996730;28;93038;-79
2022/11/02 11:21:35;;;;;;;13.30;2.03;;;;;;;;;;4978719;28;92515;-78
2022/11/02 11:24:24;;;;;;;16.92;2.35;;;;;;;;;;4978859;28;94656;-79
2022/11/02 11:27:09;;;;;;;13.77;2.17;;;;;;;;;;4978486;28;92495;-79
2022/11/02 11:29:37;;;;;;;16.73;3.47;;;;;;;;;;4979141;28;94018;-79
2022/11/02 11:32:11;;;;;;;13.93;2.70;;;;;;;;;;4977775;28;94215;-79
2022/11/02 11:34:38;;;;;;;15.75;3.28;;;;;;;;;;4978536;28;92388;-79
2022/11/02 11:37:14;;;;;;;15.98;2.30;;;;;;;;;;4978233;28;93037;-78
2022/11/02 11:39:44;;;;;;;9.45;2.63;;;;;;;;;;4978052;28;94079;-78
2022/11/02 11:42:18;;;;;;;13.65;3.20;;;;;;;;;;4979067;28;91708;-78
2022/11/02 11:44:55;;;;;;;14.02;3.53;;;;;;;;;;4978120;28;92738;-78
2022/11/02 11:47:26;;;;;;;14.88;3.20;;;;;;;;;;4980715;28;94565;-78
2022/11/02 11:49:52;;;;;;;14.65;2.70;;;;;;;;;;4976854;28;94808;-78
2022/11/02 11:52:39;;;;;;;12.68;2.58;;;;;;;;;;4977635;28;92659;-78
2022/11/02 11:55:22;;;;;;;13.25;2.70;;;;;;;;;;4978063;28;92459;-78
2022/11/02 11:58:04;;;;;;;13.70;2.97;;;;;;;;;;4978359;28;93950;-78
2022/11/02 12:00:31;;;;;;;12.82;2.42;;;;;;;;;;4977418;28;94113;-78
2022/11/02 12:03:11;;;;;;;14.40;3.00;;;;;;;;;;4978011;28;92480;-78
2022/11/02 12:05:46;;;;;;;21.63;3.13;;;;;;;;;;4978407;28;93957;-79
2022/11/02 12:08:27;;;;;;;16.40;3.00;;;;;;;;;;4977470;28;93456;-78
2022/11/02 12:10:59;;;;;;;8.32;2.45;;;;;;;;;;4981158;28;92400;-78
2022/11/02 12:13:25;;;;;;;13.50;2.42;;;;;;;;;;4977386;28;94167;-78
2022/11/02 12:15:58;;;;;;;18.92;2.75;;;;;;;;;;4976337;28;94806;-78
2022/11/02 12:18:31;;;;;;;12.63;2.60;;;;;;;;;;4978315;28;96335;-78
2022/11/02 12:21:04;;;;;;;15.07;2.67;;;;;;;;;;4977007;28;94145;-78
2022/11/02 12:23:30;;;;;;;;;;;;;;;;;;4978530;28;92390;-78
2022/11/02 12:26:15;;;;;;;17.50;2.50;;;;;;;;;;4977964;28;123939;-78
2022/11/02 12:28:44;;;;;;;9.57;2.53;;;;;;;;;;4977911;28;93175;-78
2022/11/02 12:31:29;;;;;;;17.35;2.65;;;;;;;;;;4977579;28;92606;-77
2022/11/02 12:34:14;;;;;;;11.43;2.28;;;;;;;;;;4980963;28;93956;-78
2022/11/02 12:36:48;;;;;;;11.73;2.17;;;;;;;;;;4977937;28;92539;-78
2022/11/02 12:39:52;;;;;;;6.43;2.15;;;;;;;;;;4977842;28;94364;-77
2022/11/02 12:42:30;;;;;;;9.75;2.65;;;;;;;;;;4974770;28;96489;-78
2022/11/02 12:44:59;;;;;;;19.25;3.47;;;;;;;;;;4977788;28;92337;-78
2022/11/02 12:47:44;;;;;;;13.52;2.63;;;;;;;;;;4977930;28;92916;-78
2022/11/02 12:50:22;;;;;;;17.23;3.58;;;;;;;;;;4976998;28;94057;-78
2022/11/02 12:52:59;;;;;;;12.07;2.40;;;;;;;;;;4977821;28;92708;-78
2022/11/02 12:55:31;;;;;;;13.95;3.17;;;;;;;;;;4976974;28;92950;-78
2022/11/02 12:58:05;;;;;;;8.52;1.83;;;;;;;;;;4980118;28;94187;-78
2022/11/02 13:00:35;;;;;;;17.55;3.35;;;;;;;;;;4977992;28;92904;-78
2022/11/02 13:03:10;;;;;;;11.32;2.40;;;;;;;;;;4976519;28;94031;-77
2022/11/02 13:05:38;;;;;;;10.55;1.92;;;;;;;;;;4977509;28;92485;-78
2022/11/02 13:08:04;;;;;;;10.25;2.20;;;;;;;;;;4975688;28;94810;-78
2022/11/02 13:10:46;;;;;;;10.52;2.00;;;;;;;;;;4976471;28;93309;-78
2022/11/02 13:13:27;;;;;;;12.18;2.67;;;;;;;;;;4977351;28;92312;-78
2022/11/02 13:15:54;;;;;;;12.95;2.50;;;;;;;;;;4976901;28;93943;-78
2022/11/02 13:18:22;;;;;;;10.98;1.90;;;;;;;;;;4977017;28;94126;-78
2022/11/02 13:20:53;;;;;;;8.55;2.05;;;;;;;;;;4994432;28;92589;-77
2022/11/02 13:23:20;;;;;;;11.43;2.75;;;;;;;;;;4996648;28;94289;-77
2022/11/02 13:25:51;;;;;;;13.70;2.80;;;;;;;;;;4997446;28;92371;-78
2022/11/02 13:28:36;;;;;;;7.68;1.80;;;;;;;;;;4997533;28;93202;-77
2022/11/02 13:31:03;;;;;;;9.68;2.55;;;;;;;;;;4996119;28;93127;-77
2022/11/02 13:33:45;;;;;;;19.15;2.92;;;;;;;;;;4995560;28;95070;-77
2022/11/02 13:36:12;;;;;;;9.43;2.63;;;;;;;;;;4996775;28;95888;-78
2022/11/02 13:38:45;;;;;;;23.98;2.90;;;;;;;;;;4996426;28;94176;-76
2022/11/02 13:41:26;;;;;;;10.18;2.38;;;;;;;;;;4999898;28;92438;-77
2022/11/02 13:43:54;;;;;;;;;;;;;;;;;;4996797;28;94413;-77
2022/11/02 13:46:31;;;;;;;8.43;2.00;;;;;;;;;;4996278;28;117968;-77
2022/11/02 13:49:01;;;;;;;13.57;2.55;;;;;;;;;;4996886;28;93985;-77
2022/11/02 13:51:35;;;;;;;15.85;2.72;;;;;;;;;;4979292;28;93435;-77
2022/11/02 13:54:05;;;;;;;11.13;3.03;;;;;;;;;;4995556;28;92473;-76
2022/11/02 13:56:34;;;;;;;15.18;3.50;;;;;;;;;;4996364;28;94844;-77
2022/11/02 13:59:05;;;;;;;11.15;2.28;;;;;;;;;;4993797;28;96498;-77
2022/11/02 14:01:35;;;;;;;9.85;2.75;;;;;;;;;;4996685;28;92373;-76
2022/11/02 14:04:05;;;;;;;15.37;2.27;;;;;;;;;;4998704;28;93005;-77
2022/11/02 14:06:42;;;;;;;12.23;2.60;;;;;;;;;;4995562;28;92420;-77
2022/11/02 14:09:20;;;;;;;9.77;2.60;;;;;;;;;;4995880;28;94037;-77
2022/11/02 14:11:48;;;;;;;10.60;2.25;;;;;;;;;;4996186;28;94151;-77
2022/11/02 14:14:19;;;;;;;12.88;3.35;;;;;;;;;;4995131;28;92711;-78
2022/11/02 14:16:56;;;;;;;11.30;3.17;;;;;;;;;;4995653;28;94184;-77
2022/11/02 14:19:24;;;;;;;14.88;3.78;;;;;;;;;;4995886;28;94264;-78
2022/11/02 14:21:51;;;;;;;12.75;2.70;;;;;;;;;;4995334;28;92414;-78
2022/11/02 14:24:38;;;;;;;12.30;2.33;;;;;;;;;;4994726;28;94716;-78
2022/11/02 14:27:10;;;;;;;14.90;2.60;;;;;;;;;;4997332;28;93470;-79
2022/11/02 14:29:47;;;;;;;12.82;3.08;;;;;;;;;;4995924;28;93483;-79
2022/11/02 14:32:18;;;;;;;14.73;3.72;;;;;;;;;;4996188;28;94286;-78
2022/11/02 14:35:03;;;;;;;17.63;3.20;;;;;;;;;;4995366;28;92522;-77
2022/11/02 14:37:45;;;;;;;17.25;3.08;;;;;;;;;;4996819;28;94081;-79
2022/11/02 14:40:11;;;;;;;19.48;3.20;;;;;;;;;;4995964;28;94208;-77
2022/11/02 14:42:58;;;;;;;11.20;2.67;;;;;;;;;;4995505;28;91514;-78
2022/11/02 14:45:41;;;;;;;15.90;3.13;;;;;;;;;;4996229;28;93337;-78
2022/11/02 14:48:12;;;;;;;12.48;2.90;;;;;;;;;;4994638;28;93155;-79
2022/11/02 14:50:38;;;;;;;14.13;3.03;;;;;;;;;;4997864;28;94796;-79
2022/11/02 14:53:17;;;;;;;20.40;3.38;;;;;;;;;;4995875;28;94431;-79
2022/11/02 14:55:50;;;;;;;26.73;3.45;;;;;;;;;;4995757;28;92736;-77
2022/11/02 14:58:19;;;;;;;16.33;3.05;;;;;;;;;;4995938;28;92458;-78
2022/11/02 15:00:46;;;;;;;7.72;2.65;;;;;;;;;;4996226;28;94326;-81
2022/11/02 15:03:33;;;;;;;16.10;2.30;;;;;;;;;;4995372;28;92752;-81
2022/11/02 15:06:02;;;;;;;16.25;3.42;;;;;;;;;;4996281;28;93111;-81
2022/11/02 15:08:41;;;;;;;15.38;3.35;;;;;;;;;;5000118;28;93658;-76
2022/11/02 15:11:26;;;;;;;15.25;3.10;;;;;;;;;;4998912;28;92813;-79
2022/11/02 15:13:53;;;;;;;12.40;2.70;;;;;;;;;;5002075;28;93260;-80